Time;durP1;ratioP1;P1;durP2;ratioP2;P2;SDS_P1;SDS_P2;PMS_P1;PMS_P2;Temp;Humidity;BMP_temperature;BMP_pressure;BME280_temperature;BME280_humidity;BME280_pressure;Samples;Min_cycle;Max_cycle;Signal;HPM_P1;HPM_P2
2022/11/04 00:01:08;;;;;;;;;1.50;1.50;;;;;;;;5079380;28;61907;-75
2022/11/04 00:03:33;;;;;;;;;0.25;0.25;;;;;;;;5079174;28;61820;-76
2022/11/04 00:06:01;;;;;;;;;0.75;0.75;;;;;;;;5062471;28;61904;-76
2022/11/04 00:08:26;;;;;;;;;0.00;0.00;;;;;;;;5079394;28;63989;-76
2022/11/04 00:13:40;;;;;;;;;0.00;0.00;;;;;;;;5083013;28;61866;-76
2022/11/04 00:18:49;;;;;;;;;0.00;0.00;;;;;;;;5081251;28;61958;-76
2022/11/04 00:29:26;;;;;;;;;1.00;1.00;;;;;;;;5105015;27;61751;-75
2022/11/04 00:34:36;;;;;;;;;0.00;0.00;;;;;;;;5105734;27;61918;-76
2022/11/04 00:37:02;;;;;;;;;3.50;0.75;;;;;;;;5099467;27;61970;-76
2022/11/04 00:39:27;;;;;;;;;0.75;0.75;;;;;;;;5101148;27;61862;-76
2022/11/04 00:41:52;;;;;;;;;2.75;1.00;;;;;;;;5086316;27;61950;-76
2022/11/04 00:44:18;;;;;;;;;2.00;0.50;;;;;;;;5087040;27;61847;-76
2022/11/04 00:46:43;;;;;;;;;1.50;1.00;;;;;;;;5105373;27;62070;-76
2022/11/04 00:49:08;;;;;;;;;1.50;1.00;;;;;;;;5103751;27;62919;-76
2022/11/04 00:51:33;;;;;;;;;0.75;0.00;;;;;;;;5104998;27;62614;-76
2022/11/04 00:53:59;;;;;;;;;0.00;0.00;;;;;;;;5104784;27;61744;-76
2022/11/04 00:56:24;;;;;;;;;1.00;0.00;;;;;;;;5105391;27;61775;-76
2022/11/04 00:58:49;;;;;;;;;1.00;0.00;;;;;;;;5104310;27;61784;-76
2022/11/04 01:01:18;;;;;;;;;1.00;0.00;;;;;;;;5086554;27;62071;-76
2022/11/04 01:03:44;;;;;;;;;1.00;0.00;;;;;;;;5086167;27;61774;-76
2022/11/04 01:06:09;;;;;;;;;3.50;0.00;;;;;;;;5086717;27;61880;-76
2022/11/04 01:08:34;;;;;;;;;0.00;0.00;;;;;;;;5103912;27;61979;-76
2022/11/04 01:11:04;;;;;;;;;2.00;1.00;;;;;;;;5086545;27;61831;-76
2022/11/04 01:13:29;;;;;;;;;1.50;1.00;;;;;;;;5086531;27;61793;-76
2022/11/04 01:15:58;;;;;;;;;1.00;0.00;;;;;;;;5086553;27;61745;-76
2022/11/04 01:18:24;;;;;;;;;3.00;1.00;;;;;;;;5084942;27;64649;-76
2022/11/04 01:20:49;;;;;;;;;0.75;0.75;;;;;;;;5086108;27;61799;-76
2022/11/04 01:23:14;;;;;;;;;2.00;1.00;;;;;;;;5085947;27;61839;-76
2022/11/04 01:25:42;;;;;;;;;1.00;0.00;;;;;;;;5104701;27;61813;-76
2022/11/04 01:28:08;;;;;;;;;0.00;0.00;;;;;;;;5085527;27;61871;-75
2022/11/04 01:30:33;;;;;;;;;2.00;0.00;;;;;;;;5104702;27;61797;-76
2022/11/04 01:32:58;;;;;;;;;1.75;0.75;;;;;;;;5103976;27;61775;-76
2022/11/04 01:35:23;;;;;;;;;0.00;0.00;;;;;;;;5104954;27;61683;-76
2022/11/04 01:37:49;;;;;;;;;0.00;0.00;;;;;;;;5103240;27;61872;-76
2022/11/04 01:40:14;;;;;;;;;2.50;0.00;;;;;;;;5104464;27;62021;-76
2022/11/04 01:42:40;;;;;;;;;0.50;0.00;;;;;;;;5085933;27;62003;-76
2022/11/04 01:45:11;;;;;;;;;1.50;1.00;;;;;;;;5104564;27;61999;-76
2022/11/04 01:47:39;;;;;;;;;0.00;0.00;;;;;;;;5084882;27;61854;-76
2022/11/04 01:50:10;;;;;;;;;1.00;0.00;;;;;;;;5103625;27;61662;-76
2022/11/04 01:52:48;;;;;;;;;0.00;0.00;;;;;;;;5104237;27;62113;-76
2022/11/04 01:55:17;;;;;;;;;0.75;0.75;;;;;;;;5103937;27;61930;-76
2022/11/04 01:57:45;;;;;;;;;0.75;0.00;;;;;;;;5084819;27;64848;-76
2022/11/04 02:00:11;;;;;;;;;1.25;0.00;;;;;;;;5085554;27;62061;-75
2022/11/04 02:02:39;;;;;;;;;0.25;0.25;;;;;;;;5103824;27;61868;-75
2022/11/04 02:05:04;;;;;;;;;0.00;0.00;;;;;;;;5104191;27;61780;-76
2022/11/04 02:07:30;;;;;;;;;3.00;0.00;;;;;;;;5102932;27;61843;-75
2022/11/04 02:09:56;;;;;;;;;1.00;0.00;;;;;;;;5104039;27;61802;-76
2022/11/04 02:15:05;;;;;;;;;2.00;0.00;;;;;;;;5104124;27;61719;-76
2022/11/04 02:17:48;;;;;;;;;1.25;0.25;;;;;;;;5103079;27;61794;-76
2022/11/04 02:20:23;;;;;;;;;0.75;0.00;;;;;;;;5084578;27;62139;-76
2022/11/04 02:23:05;;;;;;;;;0.00;0.00;;;;;;;;5103902;27;61755;-75
2022/11/04 02:25:37;;;;;;;;;1.25;0.25;;;;;;;;5103855;27;61966;-76
2022/11/04 02:28:14;;;;;;;;;3.75;0.00;;;;;;;;5084705;27;61818;-76
2022/11/04 02:31:00;;;;;;;;;3.75;0.75;;;;;;;;5102924;27;61872;-76
2022/11/04 02:33:48;;;;;;;;;1.25;0.00;;;;;;;;5088420;27;62069;-76
2022/11/04 02:36:16;;;;;;;;;0.00;0.00;;;;;;;;5103120;27;61687;-76
2022/11/04 02:38:49;;;;;;;;;2.25;0.00;;;;;;;;5093361;27;62897;-76
2022/11/04 02:41:14;;;;;;;;;0.00;0.00;;;;;;;;5103403;27;61699;-76
2022/11/04 02:43:58;;;;;;;;;0.50;0.00;;;;;;;;5103647;27;61718;-76
2022/11/04 02:46:30;;;;;;;;;0.00;0.00;;;;;;;;5084983;27;62157;-76
2022/11/04 02:49:17;;;;;;;;;3.00;0.00;;;;;;;;5102131;27;62877;-76
2022/11/04 02:51:57;;;;;;;;;0.75;0.50;;;;;;;;5085014;27;61771;-76
2022/11/04 02:54:25;;;;;;;;;1.00;0.00;;;;;;;;5103413;27;61847;-76
2022/11/04 02:56:53;;;;;;;;;1.00;0.25;;;;;;;;5084989;27;61706;-76
2022/11/04 02:59:22;;;;;;;;;2.00;0.00;;;;;;;;5083657;27;63498;-76
2022/11/04 03:01:49;;;;;;;;;1.50;0.00;;;;;;;;5103305;27;61839;-76
2022/11/04 03:04:17;;;;;;;;;1.25;0.00;;;;;;;;5102700;27;61836;-76
2022/11/04 03:06:44;;;;;;;;;1.00;0.00;;;;;;;;5103381;27;61874;-76
2022/11/04 03:09:11;;;;;;;;;0.25;0.00;;;;;;;;5102677;27;61826;-76
2022/11/04 03:11:39;;;;;;;;;0.75;0.00;;;;;;;;5102812;27;61751;-76
2022/11/04 03:14:07;;;;;;;;;1.00;1.00;;;;;;;;5084938;27;61923;-76
2022/11/04 03:16:36;;;;;;;;;0.00;0.00;;;;;;;;5103268;27;61722;-76
2022/11/04 03:19:04;;;;;;;;;0.00;0.00;;;;;;;;5101360;27;61961;-75
2022/11/04 03:21:31;;;;;;;;;0.00;0.00;;;;;;;;5102629;27;62012;-76
2022/11/04 03:23:57;;;;;;;;;0.75;0.00;;;;;;;;5084872;27;61795;-76
2022/11/04 03:26:28;;;;;;;;;1.50;0.00;;;;;;;;5103253;27;61797;-76
2022/11/04 03:29:13;;;;;;;;;1.00;0.00;;;;;;;;5083907;27;62971;-76
2022/11/04 03:31:43;;;;;;;;;1.00;0.00;;;;;;;;5084248;27;61831;-76
2022/11/04 03:34:09;;;;;;;;;0.00;0.00;;;;;;;;5083649;27;61716;-76
2022/11/04 03:36:34;;;;;;;;;0.75;0.75;;;;;;;;5100676;27;61723;-76
2022/11/04 03:38:59;;;;;;;;;1.00;0.00;;;;;;;;5076585;27;63757;-76
2022/11/04 03:41:37;;;;;;;;;3.50;0.50;;;;;;;;5084206;27;61761;-76
2022/11/04 03:44:02;;;;;;;;;2.00;0.75;;;;;;;;5106036;27;61827;-75
2022/11/04 03:46:28;;;;;;;;;1.50;0.00;;;;;;;;5088025;27;62084;-76
2022/11/04 03:48:54;;;;;;;;;2.00;0.00;;;;;;;;5104752;27;63107;-76
2022/11/04 03:51:19;;;;;;;;;0.00;0.00;;;;;;;;5087788;27;61810;-75
2022/11/04 03:53:44;;;;;;;;;0.00;0.00;;;;;;;;5106176;27;61666;-76
2022/11/04 03:56:10;;;;;;;;;0.00;0.00;;;;;;;;5106330;27;61789;-76
2022/11/04 03:58:35;;;;;;;;;0.00;0.00;;;;;;;;5086604;27;63226;-76
2022/11/04 04:01:16;;;;;;;;;1.75;0.00;;;;;;;;5106290;27;61737;-76
2022/11/04 04:03:47;;;;;;;;;0.00;0.00;;;;;;;;5086978;27;62069;-76
2022/11/04 04:06:18;;;;;;;;;0.00;0.00;;;;;;;;5087778;27;61915;-76
2022/11/04 04:08:50;;;;;;;;;0.00;0.00;;;;;;;;5086704;27;64594;-76
2022/11/04 04:11:22;;;;;;;;;4.00;1.00;;;;;;;;5105971;27;61820;-76
2022/11/04 04:13:47;;;;;;;;;3.00;0.00;;;;;;;;5105859;27;61851;-76
2022/11/04 04:16:16;;;;;;;;;0.00;0.00;;;;;;;;5087476;27;61745;-76
2022/11/04 04:18:49;;;;;;;;;0.00;0.00;;;;;;;;5104289;27;61815;-75
2022/11/04 04:21:18;;;;;;;;;0.25;0.00;;;;;;;;5087287;27;61802;-76
2022/11/04 04:29:23;;;;;;;;;0.00;0.00;;;;;;;;5041594;28;61999;-76
2022/11/04 04:31:51;;;;;;;;;0.00;0.00;;;;;;;;5041138;28;61950;-76
2022/11/04 04:34:21;;;;;;;;;0.50;0.00;;;;;;;;5041942;28;61839;-76
2022/11/04 04:36:56;;;;;;;;;0.00;0.00;;;;;;;;5042022;28;62076;-76
2022/11/04 04:45:02;;;;;;;;;0.00;0.00;;;;;;;;5041863;28;61821;-76
2022/11/04 04:47:33;;;;;;;;;0.00;0.00;;;;;;;;5041300;28;62178;-76
2022/11/04 04:49:59;;;;;;;;;0.00;0.00;;;;;;;;5040278;28;61882;-76
2022/11/04 04:52:26;;;;;;;;;0.50;0.00;;;;;;;;5041769;28;61802;-76
2022/11/04 04:54:51;;;;;;;;;0.00;0.00;;;;;;;;5024352;28;61900;-76
2022/11/04 04:57:16;;;;;;;;;1.00;0.00;;;;;;;;5041991;28;62282;-76
2022/11/04 04:59:42;;;;;;;;;1.00;0.00;;;;;;;;5041201;28;61750;-76
2022/11/04 05:02:07;;;;;;;;;3.25;0.00;;;;;;;;5041249;28;61989;-76
2022/11/04 05:04:32;;;;;;;;;0.00;0.00;;;;;;;;5041423;28;62268;-76
2022/11/04 05:06:58;;;;;;;;;0.75;0.00;;;;;;;;5093619;27;62214;-76
2022/11/04 05:09:23;;;;;;;;;0.00;0.00;;;;;;;;5104289;27;61894;-76
2022/11/04 05:11:48;;;;;;;;;0.50;0.00;;;;;;;;5105000;27;61999;-76
2022/11/04 05:14:13;;;;;;;;;0.00;0.00;;;;;;;;5104745;27;61957;-76
2022/11/04 05:16:39;;;;;;;;;2.50;0.00;;;;;;;;5105247;27;61785;-76
2022/11/04 05:19:04;;;;;;;;;1.00;0.75;;;;;;;;5084896;27;63464;-76
2022/11/04 05:21:29;;;;;;;;;0.00;0.00;;;;;;;;5104791;27;61896;-76
2022/11/04 05:23:54;;;;;;;;;0.75;0.00;;;;;;;;5086339;27;61877;-75
2022/11/04 05:26:20;;;;;;;;;0.50;0.00;;;;;;;;5105154;27;61910;-76
2022/11/04 05:28:45;;;;;;;;;0.50;0.00;;;;;;;;5084746;27;61968;-76
2022/11/04 05:31:11;;;;;;;;;0.75;0.00;;;;;;;;5104739;27;61903;-76
2022/11/04 05:33:36;;;;;;;;;0.00;0.00;;;;;;;;5085969;27;61869;-76
2022/11/04 05:36:05;;;;;;;;;0.00;0.00;;;;;;;;5104905;27;61932;-76
2022/11/04 05:38:31;;;;;;;;;0.00;0.00;;;;;;;;5103360;27;62675;-76
2022/11/04 05:40:56;;;;;;;;;1.75;0.00;;;;;;;;5104443;27;61791;-76
2022/11/04 05:43:22;;;;;;;;;0.00;0.00;;;;;;;;5104173;27;61859;-76
2022/11/04 05:45:47;;;;;;;;;0.00;0.00;;;;;;;;5104622;27;61780;-76
2022/11/04 05:48:12;;;;;;;;;1.00;1.00;;;;;;;;5084971;27;61905;-76
2022/11/04 05:50:40;;;;;;;;;2.50;0.00;;;;;;;;5103726;27;61894;-76
2022/11/04 05:53:05;;;;;;;;;0.00;0.00;;;;;;;;5085824;27;62149;-76
2022/11/04 05:55:30;;;;;;;;;0.75;0.00;;;;;;;;5086223;27;62041;-76
2022/11/04 05:57:57;;;;;;;;;0.00;0.00;;;;;;;;5084131;27;64191;-76
2022/11/04 06:00:23;;;;;;;;;0.00;0.00;;;;;;;;5085928;27;61942;-76
2022/11/04 06:02:48;;;;;;;;;0.75;0.00;;;;;;;;5085348;27;61996;-76
2022/11/04 06:05:14;;;;;;;;;0.00;0.00;;;;;;;;5103363;27;61693;-76
2022/11/04 06:07:39;;;;;;;;;0.00;0.00;;;;;;;;5083929;27;61915;-76
2022/11/04 06:10:05;;;;;;;;;0.00;0.00;;;;;;;;5085259;27;61827;-75
2022/11/04 06:12:31;;;;;;;;;0.00;0.00;;;;;;;;5103769;27;61968;-75
2022/11/04 06:14:56;;;;;;;;;0.00;0.00;;;;;;;;5104064;27;61922;-75
2022/11/04 06:17:21;;;;;;;;;1.00;0.00;;;;;;;;5102699;27;62097;-74
2022/11/04 06:19:47;;;;;;;;;0.00;0.00;;;;;;;;5084806;27;61981;-75
2022/11/04 06:22:17;;;;;;;;;0.00;0.00;;;;;;;;5102638;27;62010;-75
2022/11/04 06:24:42;;;;;;;;;0.00;0.00;;;;;;;;5104107;27;61724;-75
2022/11/04 06:27:07;;;;;;;;;0.00;0.00;;;;;;;;5083868;27;63474;-75
2022/11/04 06:29:33;;;;;;;;;0.00;0.00;;;;;;;;5103657;27;61761;-76
2022/11/04 06:31:58;;;;;;;;;0.25;0.00;;;;;;;;5085118;27;62031;-76
2022/11/04 06:34:24;;;;;;;;;0.00;0.00;;;;;;;;5103187;27;61727;-82
2022/11/04 06:36:49;;;;;;;;;1.50;0.00;;;;;;;;5099623;27;62027;-77
2022/11/04 06:39:15;;;;;;;;;0.00;0.00;;;;;;;;5102648;27;61842;-76
2022/11/04 06:41:40;;;;;;;;;0.00;0.00;;;;;;;;5084147;27;62078;-75
2022/11/04 06:44:05;;;;;;;;;0.00;0.00;;;;;;;;5084317;27;61921;-75
2022/11/04 06:46:35;;;;;;;;;0.00;0.00;;;;;;;;5102447;27;61868;-75
2022/11/04 06:49:01;;;;;;;;;1.00;0.00;;;;;;;;5101938;27;61819;-75
2022/11/04 06:51:26;;;;;;;;;1.00;0.00;;;;;;;;5084599;27;61894;-75
2022/11/04 06:53:51;;;;;;;;;0.00;0.00;;;;;;;;5102934;27;61718;-75
2022/11/04 06:56:16;;;;;;;;;1.00;0.00;;;;;;;;5101629;27;61856;-75
2022/11/04 06:58:42;;;;;;;;;0.50;0.00;;;;;;;;5102266;27;61916;-75
2022/11/04 07:01:07;;;;;;;;;0.75;0.00;;;;;;;;5102355;27;61854;-76
2022/11/04 07:03:32;;;;;;;;;0.00;0.00;;;;;;;;5102758;27;62136;-75
2022/11/04 07:05:58;;;;;;;;;1.00;0.00;;;;;;;;5101978;27;63080;-75
2022/11/04 07:08:23;;;;;;;;;0.00;0.00;;;;;;;;5083920;27;61802;-75
2022/11/04 07:10:48;;;;;;;;;1.75;0.00;;;;;;;;5102203;27;61821;-76
2022/11/04 07:13:15;;;;;;;;;0.25;0.00;;;;;;;;5102628;27;61839;-77
2022/11/04 07:15:42;;;;;;;;;1.50;0.00;;;;;;;;5102781;27;62649;-80
2022/11/04 07:18:07;;;;;;;;;0.75;0.00;;;;;;;;5101952;27;61850;-78
2022/11/04 07:20:33;;;;;;;;;0.00;0.00;;;;;;;;5102600;27;61803;-79
2022/11/04 07:22:58;;;;;;;;;0.75;0.00;;;;;;;;5084905;27;62058;-77
2022/11/04 07:25:24;;;;;;;;;1.00;0.00;;;;;;;;5101687;27;62818;-77
2022/11/04 07:27:49;;;;;;;;;0.00;0.00;;;;;;;;5084095;27;61798;-77
2022/11/04 07:30:14;;;;;;;;;0.00;0.00;;;;;;;;5102937;27;61793;-77
2022/11/04 07:32:39;;;;;;;;;1.00;0.00;;;;;;;;5084253;27;61799;-79
2022/11/04 07:35:12;;;;;;;;;1.00;0.00;;;;;;;;5084187;27;61924;-79
2022/11/04 07:37:40;;;;;;;;;2.50;0.00;;;;;;;;5102527;27;61735;-81
2022/11/04 07:40:10;;;;;;;;;0.25;0.00;;;;;;;;5083978;27;61870;-79
2022/11/04 07:42:36;;;;;;;;;1.75;0.00;;;;;;;;5084680;27;61859;-79
2022/11/04 07:45:01;;;;;;;;;1.00;0.00;;;;;;;;5101343;27;62198;-76
2022/11/04 07:47:30;;;;;;;;;0.00;0.00;;;;;;;;5102028;27;61810;-77
2022/11/04 07:49:55;;;;;;;;;0.50;0.00;;;;;;;;5102250;27;61941;-77
2022/11/04 07:52:20;;;;;;;;;1.50;0.00;;;;;;;;5077730;27;62190;-78
2022/11/04 07:54:46;;;;;;;;;2.00;1.00;;;;;;;;5086461;27;62676;-78
2022/11/04 07:57:11;;;;;;;;;2.00;1.00;;;;;;;;5099025;27;61795;-76
2022/11/04 07:59:36;;;;;;;;;0.00;0.00;;;;;;;;5100572;27;61822;-76
2022/11/04 08:02:02;;;;;;;;;3.50;0.00;;;;;;;;5082221;28;61950;-75
2022/11/04 08:04:27;;;;;;;;;3.50;0.00;;;;;;;;5062618;28;62933;-76
2022/11/04 08:06:52;;;;;;;;;5.50;1.00;;;;;;;;5081993;28;61833;-75
2022/11/04 08:09:18;;;;;;;;;3.00;0.00;;;;;;;;5092519;27;61921;-75
2022/11/04 08:11:43;;;;;;;;;2.00;0.25;;;;;;;;5102550;27;61667;-75
2022/11/04 08:14:08;;;;;;;;;0.00;0.00;;;;;;;;5101922;27;61646;-75
2022/11/04 08:16:34;;;;;;;;;0.00;0.00;;;;;;;;5101974;27;62672;-76
2022/11/04 08:19:01;;;;;;;;;1.00;1.00;;;;;;;;5083182;27;61760;-76
2022/11/04 08:21:27;;;;;;;;;1.00;1.00;;;;;;;;5102384;27;61847;-75
2022/11/04 08:23:52;;;;;;;;;0.25;0.25;;;;;;;;5082687;27;61924;-81
2022/11/04 08:26:19;;;;;;;;;1.00;1.00;;;;;;;;5072664;28;61945;-81
2022/11/04 08:28:44;;;;;;;;;2.00;0.00;;;;;;;;5081623;28;62107;-80
2022/11/04 08:31:12;;;;;;;;;1.00;0.00;;;;;;;;5066815;28;62059;-76
2022/11/04 08:33:38;;;;;;;;;3.50;1.50;;;;;;;;5065685;28;64716;-76
2022/11/04 08:36:05;;;;;;;;;0.00;0.00;;;;;;;;5085052;27;61736;-75
2022/11/04 08:38:30;;;;;;;;;0.50;0.00;;;;;;;;5100950;27;61626;-75
2022/11/04 08:40:59;;;;;;;;;0.00;0.00;;;;;;;;5087459;27;61829;-76
2022/11/04 08:43:24;;;;;;;;;0.00;0.00;;;;;;;;5086455;27;62858;-76
2022/11/04 08:45:50;;;;;;;;;1.50;0.00;;;;;;;;5105113;27;61747;-75
2022/11/04 08:48:15;;;;;;;;;0.00;0.00;;;;;;;;5086691;27;61929;-74
2022/11/04 08:50:41;;;;;;;;;0.50;0.25;;;;;;;;5086060;27;61862;-75
2022/11/04 08:53:06;;;;;;;;;0.00;0.00;;;;;;;;5068354;27;63558;-76
2022/11/04 08:55:32;;;;;;;;;0.00;0.00;;;;;;;;5066386;28;61955;-76
2022/11/04 08:57:58;;;;;;;;;2.75;0.00;;;;;;;;5062783;28;62058;-76
2022/11/04 09:00:23;;;;;;;;;0.00;0.00;;;;;;;;5064677;28;61732;-75
2022/11/04 09:02:49;;;;;;;;;0.50;0.50;;;;;;;;5062123;28;61905;-75
2022/11/04 09:05:14;;;;;;;;;0.75;0.75;;;;;;;;5064045;28;61892;-76
2022/11/04 09:07:40;;;;;;;;;3.00;0.75;;;;;;;;5063846;28;61674;-76
2022/11/04 09:10:06;;;;;;;;;2.00;1.00;;;;;;;;5064486;28;61751;-79
2022/11/04 09:12:32;;;;;;;;;1.00;0.00;;;;;;;;5062483;28;61863;-80
2022/11/04 09:14:57;;;;;;;;;1.75;1.00;;;;;;;;5064440;28;61803;-80
2022/11/04 09:17:22;;;;;;;;;3.25;1.00;;;;;;;;5062537;28;61930;-77
2022/11/04 09:19:48;;;;;;;;;0.50;0.00;;;;;;;;5063209;28;61892;-77
2022/11/04 09:22:13;;;;;;;;;0.50;0.00;;;;;;;;5062955;28;62799;-76
2022/11/04 09:24:38;;;;;;;;;0.00;0.00;;;;;;;;5064098;28;61977;-77
2022/11/04 09:27:04;;;;;;;;;0.00;0.00;;;;;;;;5079481;27;61823;-76
2022/11/04 09:29:32;;;;;;;;;1.00;0.00;;;;;;;;5082782;27;61736;-76
2022/11/04 09:31:57;;;;;;;;;1.75;0.00;;;;;;;;5081862;28;63673;-76
2022/11/04 09:34:23;;;;;;;;;1.50;0.00;;;;;;;;5082323;28;62019;-76
2022/11/04 09:36:49;;;;;;;;;1.00;1.00;;;;;;;;5081852;28;61685;-76
2022/11/04 09:39:14;;;;;;;;;1.50;0.50;;;;;;;;5084133;27;61778;-76
2022/11/04 09:41:42;;;;;;;;;1.00;0.00;;;;;;;;5082855;27;61756;-76
2022/11/04 09:44:39;;;;;;;;;1.25;0.00;;;;;;;;5082695;27;61900;-77
2022/11/04 09:47:08;;;;;;;;;0.00;0.00;;;;;;;;5083473;27;61723;-81
2022/11/04 09:49:35;;;;;;;;;0.00;0.00;;;;;;;;5081908;28;61772;-81
2022/11/04 09:52:01;;;;;;;;;0.00;0.00;;;;;;;;5079644;27;62895;-81
2022/11/04 09:54:49;;;;;;;;;0.50;0.50;;;;;;;;5062362;28;62488;-81
2022/11/04 09:57:16;;;;;;;;;0.00;0.00;;;;;;;;5069456;27;62241;-82
2022/11/04 09:59:42;;;;;;;;;0.75;0.00;;;;;;;;5085573;27;62100;-75
2022/11/04 10:02:07;;;;;;;;;0.25;0.25;;;;;;;;5084803;27;61781;-76
2022/11/04 10:04:35;;;;;;;;;0.00;0.00;;;;;;;;5085203;27;62115;-76
2022/11/04 10:07:00;;;;;;;;;3.50;0.00;;;;;;;;5085480;27;61741;-76
2022/11/04 10:09:38;;;;;;;;;0.00;0.00;;;;;;;;5085557;27;62116;-76
2022/11/04 10:12:12;;;;;;;;;0.00;0.00;;;;;;;;5084650;27;63524;-76
2022/11/04 10:14:37;;;;;;;;;2.00;0.00;;;;;;;;5085339;27;61750;-75
2022/11/04 10:17:13;;;;;;;;;0.00;0.00;;;;;;;;5084640;27;61910;-76
2022/11/04 10:19:41;;;;;;;;;0.00;0.00;;;;;;;;5084344;27;62065;-75
2022/11/04 10:22:15;;;;;;;;;0.00;0.00;;;;;;;;5103143;27;63846;-75
2022/11/04 10:24:45;;;;;;;;;0.50;0.00;;;;;;;;5085113;27;61758;-77
2022/11/04 10:27:14;;;;;;;;;0.50;0.50;;;;;;;;5086628;27;61696;-76
2022/11/04 10:29:41;;;;;;;;;2.00;1.00;;;;;;;;5067664;27;62148;-75
2022/11/04 10:32:30;;;;;;;;;3.50;0.00;;;;;;;;5100138;27;61976;-75
2022/11/04 10:34:57;;;;;;;;;0.00;0.00;;;;;;;;5037356;28;62154;-75
2022/11/04 10:37:24;;;;;;;;;0.00;0.00;;;;;;;;5039810;28;62062;-75
2022/11/04 10:39:51;;;;;;;;;1.00;0.00;;;;;;;;5039638;28;61745;-75
2022/11/04 10:42:18;;;;;;;;;0.00;0.00;;;;;;;;5022725;28;61937;-75
2022/11/04 10:44:44;;;;;;;;;1.00;0.00;;;;;;;;5039253;28;61769;-76
2022/11/04 10:47:25;;;;;;;;;0.00;0.00;;;;;;;;5039622;28;61915;-75
2022/11/04 10:50:12;;;;;;;;;0.00;0.00;;;;;;;;5038839;28;62278;-76
2022/11/04 10:52:38;;;;;;;;;0.50;0.00;;;;;;;;5013500;28;62860;-75
2022/11/04 10:55:23;;;;;;;;;0.00;0.00;;;;;;;;5002653;28;61805;-76
2022/11/04 10:57:49;;;;;;;;;0.50;0.00;;;;;;;;5012064;28;62040;-76
2022/11/04 11:00:33;;;;;;;;;2.00;0.00;;;;;;;;5003055;28;61777;-78
2022/11/04 11:02:58;;;;;;;;;0.00;0.00;;;;;;;;5001874;28;62038;-81
2022/11/04 11:05:24;;;;;;;;;0.00;0.00;;;;;;;;5002859;28;61696;-78
2022/11/04 11:07:51;;;;;;;;;0.00;0.00;;;;;;;;5003041;28;62232;-78
2022/11/04 11:10:19;;;;;;;;;0.00;0.00;;;;;;;;5021688;28;61821;-75
2022/11/04 11:12:49;;;;;;;;;0.00;0.00;;;;;;;;5074336;27;62671;-75
2022/11/04 11:15:25;;;;;;;;;0.50;0.00;;;;;;;;5063923;27;61943;-75
2022/11/04 11:17:59;;;;;;;;;1.50;0.50;;;;;;;;5081757;28;61890;-76
2022/11/04 11:20:26;;;;;;;;;0.00;0.00;;;;;;;;5082208;28;61824;-75
2022/11/04 11:22:51;;;;;;;;;0.25;0.25;;;;;;;;5081772;28;62516;-76
2022/11/04 11:25:24;;;;;;;;;1.25;0.00;;;;;;;;5082607;27;61758;-76
2022/11/04 11:27:53;;;;;;;;;1.00;0.00;;;;;;;;5102706;27;61688;-76
2022/11/04 11:30:20;;;;;;;;;0.00;0.00;;;;;;;;5103105;27;62013;-75
2022/11/04 11:32:52;;;;;;;;;1.00;0.00;;;;;;;;5100448;27;61911;-76
2022/11/04 11:35:18;;;;;;;;;0.00;0.00;;;;;;;;5084011;27;61793;-78
2022/11/04 11:37:46;;;;;;;;;0.00;0.00;;;;;;;;5102547;27;61843;-77
2022/11/04 11:40:30;;;;;;;;;0.00;0.00;;;;;;;;5084415;27;61807;-76
2022/11/04 11:42:57;;;;;;;;;0.00;0.00;;;;;;;;5101954;27;61841;-77
2022/11/04 11:45:22;;;;;;;;;0.00;0.00;;;;;;;;5083944;27;61791;-77
2022/11/04 11:47:53;;;;;;;;;0.00;0.00;;;;;;;;5101826;27;61690;-82
2022/11/04 11:50:23;;;;;;;;;0.00;0.00;;;;;;;;5083777;27;62034;-80
2022/11/04 11:52:51;;;;;;;;;1.50;0.00;;;;;;;;5073802;28;62049;-80
2022/11/04 11:55:18;;;;;;;;;0.00;0.00;;;;;;;;5046931;28;61753;-80
2022/11/04 11:57:45;;;;;;;;;0.50;0.50;;;;;;;;5081522;28;61951;-81
2022/11/04 12:00:14;;;;;;;;;0.00;0.00;;;;;;;;5064010;28;61757;-79
2022/11/04 12:02:45;;;;;;;;;3.00;1.00;;;;;;;;5062499;28;62045;-77
2022/11/04 12:05:12;;;;;;;;;0.00;0.00;;;;;;;;5085087;27;61869;-75
2022/11/04 12:07:37;;;;;;;;;1.50;0.25;;;;;;;;5085571;28;62139;-75
2022/11/04 12:10:29;;;;;;;;;1.25;1.25;;;;;;;;5066743;28;61809;-75
2022/11/04 12:13:00;;;;;;;;;0.00;0.00;;;;;;;;5084464;27;61878;-76
2022/11/04 12:15:28;;;;;;;;;0.00;0.00;;;;;;;;5066410;28;62061;-76
2022/11/04 12:18:03;;;;;;;;;1.75;1.00;;;;;;;;5085043;28;61942;-77
2022/11/04 12:20:40;;;;;;;;;1.25;1.25;;;;;;;;5066531;28;62082;-77
2022/11/04 12:23:20;;;;;;;;;0.50;0.00;;;;;;;;5084698;27;61813;-76
2022/11/04 12:26:01;;;;;;;;;2.00;0.00;;;;;;;;5071652;27;61752;-77
2022/11/04 12:28:49;;;;;;;;;1.00;1.00;;;;;;;;5086955;27;61795;-78
2022/11/04 12:31:30;;;;;;;;;2.75;1.00;;;;;;;;5075729;27;61829;-78
2022/11/04 12:33:55;;;;;;;;;0.25;0.25;;;;;;;;5086342;27;63199;-77
2022/11/04 12:36:43;;;;;;;;;1.50;1.50;;;;;;;;5105569;27;61931;-78
2022/11/04 12:39:16;;;;;;;;;2.00;1.00;;;;;;;;5066573;28;61856;-78
2022/11/04 12:41:56;;;;;;;;;1.00;1.00;;;;;;;;5067084;28;61927;-78
2022/11/04 12:44:26;;;;;;;;;0.75;0.75;;;;;;;;5065565;28;63612;-78
2022/11/04 12:46:59;;;;;;;;;1.00;1.00;;;;;;;;5066332;28;61905;-78
2022/11/04 12:49:24;;;;;;;;;1.75;0.75;;;;;;;;5083697;28;62021;-77
2022/11/04 12:51:56;;;;;;;;;0.75;0.75;;;;;;;;5085005;27;61757;-79
2022/11/04 12:54:30;;;;;;;;;1.25;1.25;;;;;;;;5084100;27;62168;-78
2022/11/04 12:57:18;;;;;;;;;1.50;0.50;;;;;;;;5066071;28;61923;-74
2022/11/04 12:59:44;;;;;;;;;1.50;1.50;;;;;;;;5102012;27;61693;-75
2022/11/04 13:02:13;;;;;;;;;2.75;1.00;;;;;;;;5105265;27;61886;-75
2022/11/04 13:04:44;;;;;;;;;1.00;0.00;;;;;;;;5103908;27;61858;-74
2022/11/04 13:07:13;;;;;;;;;0.00;0.00;;;;;;;;5104903;27;61905;-74
2022/11/04 13:09:41;;;;;;;;;1.75;0.00;;;;;;;;5104317;27;61724;-74
2022/11/04 13:12:21;;;;;;;;;0.00;0.00;;;;;;;;5105088;27;61808;-74
2022/11/04 13:14:59;;;;;;;;;0.00;0.00;;;;;;;;5084788;27;62105;-74
2022/11/04 13:17:31;;;;;;;;;0.00;0.00;;;;;;;;5104713;27;61753;-74
2022/11/04 13:20:20;;;;;;;;;1.50;1.00;;;;;;;;5085457;27;62018;-74
2022/11/04 13:22:47;;;;;;;;;2.50;0.00;;;;;;;;5103222;27;61975;-74
2022/11/04 13:25:15;;;;;;;;;0.25;0.25;;;;;;;;5103507;27;62755;-74
2022/11/04 13:27:44;;;;;;;;;1.00;0.00;;;;;;;;5103771;27;62036;-74
2022/11/04 13:30:26;;;;;;;;;1.00;1.00;;;;;;;;5104055;27;61719;-74
2022/11/04 13:32:58;;;;;;;;;4.00;1.75;;;;;;;;5104073;27;61865;-74
2022/11/04 13:35:38;;;;;;;;;0.00;0.00;;;;;;;;5103921;27;62632;-75
2022/11/04 13:38:07;;;;;;;;;2.75;0.00;;;;;;;;5084174;27;61908;-75
2022/11/04 13:40:39;;;;;;;;;1.50;0.75;;;;;;;;5082834;27;61997;-74
2022/11/04 13:45:52;;;;;;;;;0.00;0.00;;;;;;;;5100489;27;61901;-75
2022/11/04 13:48:20;;;;;;;;;0.00;0.00;;;;;;;;5085033;27;62028;-74
2022/11/04 13:50:54;;;;;;;;;0.50;0.00;;;;;;;;5104146;27;61731;-74
2022/11/04 13:53:20;;;;;;;;;0.00;0.00;;;;;;;;5089965;27;61918;-74
2022/11/04 13:55:49;;;;;;;;;0.00;0.00;;;;;;;;5064714;28;62819;-74
2022/11/04 13:58:22;;;;;;;;;2.00;0.00;;;;;;;;5083652;27;62011;-75
2022/11/04 14:01:06;;;;;;;;;0.00;0.00;;;;;;;;5103952;27;61790;-75
2022/11/04 14:03:51;;;;;;;;;1.25;0.00;;;;;;;;5103094;27;61906;-74
2022/11/04 14:06:37;;;;;;;;;0.00;0.00;;;;;;;;5083762;27;64994;-74
2022/11/04 14:09:21;;;;;;;;;2.25;1.00;;;;;;;;5084893;27;61807;-74
2022/11/04 14:12:22;;;;;;;;;3.00;1.50;;;;;;;;5084425;27;62126;-75
2022/11/04 14:15:13;;;;;;;;;1.00;1.00;;;;;;;;5040639;28;61975;-75
2022/11/04 14:17:40;;;;;;;;;1.00;1.00;;;;;;;;5036163;28;62733;-74
2022/11/04 14:20:24;;;;;;;;;1.00;1.00;;;;;;;;5023171;28;61898;-74
2022/11/04 14:22:53;;;;;;;;;1.00;1.00;;;;;;;;5039283;28;61891;-74
2022/11/04 14:25:21;;;;;;;;;1.25;1.25;;;;;;;;5022057;28;61958;-75
2022/11/04 14:27:58;;;;;;;;;2.50;1.50;;;;;;;;5018575;28;61867;-75
2022/11/04 14:30:29;;;;;;;;;3.50;1.25;;;;;;;;5023669;28;62209;-75
2022/11/04 14:32:59;;;;;;;;;5.50;4.00;;;;;;;;5039347;28;62009;-75
2022/11/04 14:35:26;;;;;;;;;1.00;1.00;;;;;;;;5023429;28;61909;-75
2022/11/04 14:37:52;;;;;;;;;2.00;2.00;;;;;;;;5038940;28;61930;-74
2022/11/04 14:40:43;;;;;;;;;3.00;2.00;;;;;;;;5039293;28;61850;-74
2022/11/04 14:43:16;;;;;;;;;2.75;1.25;;;;;;;;5023211;28;61739;-75
2022/11/04 14:45:42;;;;;;;;;2.00;2.00;;;;;;;;5039886;28;61842;-75
2022/11/04 14:48:26;;;;;;;;;0.25;0.25;;;;;;;;5047775;28;61908;-74
2022/11/04 14:50:53;;;;;;;;;1.75;0.50;;;;;;;;5085196;27;61748;-74
2022/11/04 14:53:37;;;;;;;;;2.00;1.00;;;;;;;;5089127;27;62005;-74
2022/11/04 14:56:03;;;;;;;;;2.25;2.00;;;;;;;;5100899;27;61917;-75
2022/11/04 14:58:29;;;;;;;;;2.00;1.00;;;;;;;;5080339;27;63489;-75
2022/11/04 15:00:56;;;;;;;;;1.00;1.00;;;;;;;;5082417;28;61858;-74
2022/11/04 15:03:26;;;;;;;;;0.00;0.00;;;;;;;;5081113;28;61751;-74
2022/11/04 15:05:52;;;;;;;;;1.25;1.25;;;;;;;;5082219;28;61783;-76
2022/11/04 15:08:24;;;;;;;;;0.25;0.25;;;;;;;;5081684;27;62072;-77
2022/11/04 15:10:50;;;;;;;;;0.00;0.00;;;;;;;;5080611;28;62476;-74
2022/11/04 15:13:18;;;;;;;;;0.00;0.00;;;;;;;;5079643;27;62429;-74
2022/11/04 15:15:44;;;;;;;;;1.00;1.00;;;;;;;;5079928;28;61905;-74
2022/11/04 15:18:14;;;;;;;;;1.50;1.00;;;;;;;;5081071;28;62133;-75
2022/11/04 15:20:45;;;;;;;;;0.50;0.50;;;;;;;;5081955;27;61879;-74
2022/11/04 15:23:16;;;;;;;;;0.00;0.00;;;;;;;;5082391;27;61704;-74
2022/11/04 15:25:45;;;;;;;;;0.00;0.00;;;;;;;;5081326;27;61823;-75
2022/11/04 15:28:15;;;;;;;;;1.00;0.00;;;;;;;;5081134;28;62637;-74